»·PEaware :: N346CB KMHV-KSAN

N346CB :: KMHV-KSAN

FLIGHT INFORMATION

Flight Status: Arrived
Operator: Privately registered:
United States
More flights under this callsign
Pilot: Ben H. (9170)
Aircraft: CESSNA T210 TURBO CENTURION
(T210)
More flights by this aircraft type
Origin: KMHV Mojave
United States
Destination: KSAN San Diego Intl-Lindbergh
United States
More flights between these airports :: More routes between these airports
Route: +
File this flight plan on PilotEdge
Remarks:
Altitude:
(Current/Filed)
0ft
Speed:
(Current/Filed)
0kts
Departed: 16-Mar-19 07:23 AM
Arrived: 16-Mar-19 08:27 AM
Distance/Time
Traveled:
148nm/1:03
Distance/Time
To Go:
Arrived

Flight Plot

Page will automatically refresh every two minutes.

Flight plan parsing failed; only flown route is shown


Map Options




Map Legend


Flown Route
Filed Route
Departure Airport
Arrival Airport
Navaid (VOR, NDB)
Fix

Horizontal Profiles

Position Reports

Time Latitude Longitude Heading Altitude Ground
Speed
16-Mar-19 07:21 35.243565 -118.160648 165 8003ft 137kts
16-Mar-19 07:22 35.206860 -118.149764 157 8663ft 135kts
16-Mar-19 07:23 35.170517 -118.135387 157 9330ft 138kts
16-Mar-19 07:24 35.139771 -118.146911 213 9889ft 146kts
16-Mar-19 07:25 35.098214 -118.157853 170 10595ft 143kts
16-Mar-19 07:26 35.058759 -118.150415 165 11248ft 144kts
16-Mar-19 07:27 35.016594 -118.143838 169 11512ft 165kts
16-Mar-19 07:28 34.968407 -118.136656 168 11509ft 179kts
16-Mar-19 07:29 34.919182 -118.129111 168 11504ft 175kts
16-Mar-19 07:30 34.877881 -118.122693 167 11502ft 172kts
16-Mar-19 07:31 34.851152 -118.118571 167 11502ft 170kts
16-Mar-19 07:32 34.815229 -118.113024 167 11502ft 170kts
16-Mar-19 07:33 34.773096 -118.106536 167 11501ft 169kts
16-Mar-19 07:34 34.730530 -118.100003 167 11501ft 169kts
16-Mar-19 07:35 34.683625 -118.092814 167 11500ft 169kts
16-Mar-19 07:36 34.638222 -118.085863 167 11500ft 169kts
16-Mar-19 07:37 34.594429 -118.067747 152 11499ft 165kts
16-Mar-19 07:38 34.551598 -118.046930 152 11499ft 165kts
16-Mar-19 07:39 34.509277 -118.026493 152 11494ft 165kts
16-Mar-19 07:40 34.466319 -118.005798 152 11483ft 166kts
16-Mar-19 07:41 34.423983 -117.985441 152 11566ft 162kts
16-Mar-19 07:42 34.381517 -117.964976 152 11549ft 166kts
16-Mar-19 07:43 34.338308 -117.944250 152 11528ft 167kts
16-Mar-19 07:44 34.295024 -117.923503 152 11511ft 167kts
16-Mar-19 07:45 34.257538 -117.905544 152 11502ft 167kts
16-Mar-19 07:46 34.213942 -117.884677 152 11498ft 167kts
16-Mar-19 07:47 34.176399 -117.866808 152 11635ft 156kts
16-Mar-19 07:48 34.134014 -117.846462 153 10988ft 175kts
16-Mar-19 07:49 34.113919 -117.810408 103 10437ft 167kts
16-Mar-19 07:50 34.101116 -117.756061 101 9739ft 167kts
16-Mar-19 07:51 34.077194 -117.710497 134 9502ft 166kts
16-Mar-19 07:52 34.037951 -117.679145 145 9501ft 168kts
16-Mar-19 07:53 33.999303 -117.652844 145 9504ft 167kts
16-Mar-19 07:54 33.956775 -117.630100 157 9509ft 168kts
16-Mar-19 07:55 33.914434 -117.614354 157 9514ft 166kts
16-Mar-19 07:56 33.875737 -117.600166 157 9516ft 166kts
16-Mar-19 07:57 33.831694 -117.584105 158 9516ft 165kts
16-Mar-19 07:58 33.787426 -117.567987 158 9515ft 166kts
16-Mar-19 07:59 33.743079 -117.551859 158 9512ft 167kts
16-Mar-19 08:00 33.698406 -117.535626 158 9504ft 169kts
16-Mar-19 08:01 33.653066 -117.519178 158 9498ft 170kts
16-Mar-19 08:02 33.607280 -117.502590 158 9493ft 172kts
16-Mar-19 08:03 33.561333 -117.485968 158 9492ft 172kts
16-Mar-19 08:04 33.515715 -117.469484 158 9492ft 172kts
16-Mar-19 08:05 33.469769 -117.452896 159 9446ft 173kts
16-Mar-19 08:06 33.422803 -117.436015 159 8944ft 177kts
16-Mar-19 08:07 33.375818 -117.419094 159 8442ft 177kts
16-Mar-19 08:08 33.329408 -117.402396 160 7946ft 176kts
16-Mar-19 08:09 33.285808 -117.386727 160 7479ft 176kts
16-Mar-19 08:10 33.239052 -117.369941 160 6976ft 174kts
16-Mar-19 08:11 33.192733 -117.353345 160 6472ft 173kts
16-Mar-19 08:12 33.151193 -117.338466 160 6023ft 171kts
16-Mar-19 08:13 33.106337 -117.322412 160 5535ft 170kts
16-Mar-19 08:14 33.060595 -117.306046 160 5043ft 172kts
16-Mar-19 08:15 33.015643 -117.289995 160 4560ft 172kts
16-Mar-19 08:16 32.971733 -117.274309 161 4086ft 171kts
16-Mar-19 08:17 32.929302 -117.259207 161 3539ft 167kts
16-Mar-19 08:18 32.886683 -117.244048 162 2846ft 159kts
16-Mar-19 08:19 32.847260 -117.230011 163 2178ft 154kts
16-Mar-19 08:20 32.807219 -117.215778 163 1510ft 150kts
16-Mar-19 08:21 32.778152 -117.196929 117 1243ft 98kts
16-Mar-19 08:22 32.764880 -117.170907 116 976ft 90kts
16-Mar-19 08:23 32.749036 -117.152680 190 881ft 86kts
16-Mar-19 08:25 32.727374 -117.162016 265 567ft 82kts
16-Mar-19 08:26 32.732486 -117.185277 288 18ft 48kts
16-Mar-19 08:27 32.733977 -117.188035 16 18ft 2kts
16-Mar-19 08:28 32.733269 -117.183629 106 18ft 9kts
16-Mar-19 08:29 32.732471 -117.180413 106 18ft 10kts
16-Mar-19 08:30 32.732035 -117.177672 58 18ft 5kts
16-Mar-19 08:31 32.732328 -117.177587 185 18ft 0kts

Navigation Log

Ident Type
Flight plan parsing failed, navigation log unavailable